sensor_id;sensor_type;location;lat;lon;timestamp;temperature;humidity
16313;DHT22;8265;52.622;13.296;2022-08-02T00:04:17;17.20;99.90
16313;DHT22;8265;52.622;13.296;2022-08-02T00:09:38;17.30;99.90
16313;DHT22;8265;52.622;13.296;2022-08-02T00:14:59;17.50;99.90
16313;DHT22;8265;52.622;13.296;2022-08-02T00:20:20;17.50;99.90
16313;DHT22;8265;52.622;13.296;2022-08-02T00:25:41;17.60;99.90
16313;DHT22;8265;52.622;13.296;2022-08-02T00:31:02;17.60;99.90
16313;DHT22;8265;52.622;13.296;2022-08-02T00:36:23;17.70;99.90
16313;DHT22;8265;52.622;13.296;2022-08-02T00:41:47;17.70;99.90
16313;DHT22;8265;52.622;13.296;2022-08-02T00:47:05;17.70;99.90
16313;DHT22;8265;52.622;13.296;2022-08-02T00:52:26;17.70;99.90
16313;DHT22;8265;52.622;13.296;2022-08-02T00:57:47;17.70;99.90
16313;DHT22;8265;52.622;13.296;2022-08-02T01:03:08;17.70;99.90
16313;DHT22;8265;52.622;13.296;2022-08-02T01:08:29;17.70;99.90
16313;DHT22;8265;52.622;13.296;2022-08-02T01:13:50;17.80;99.90
16313;DHT22;8265;52.622;13.296;2022-08-02T01:19:17;17.70;99.90
16313;DHT22;8265;52.622;13.296;2022-08-02T01:24:37;17.70;99.90
16313;DHT22;8265;52.622;13.296;2022-08-02T01:29:53;17.70;99.90
16313;DHT22;8265;52.622;13.296;2022-08-02T01:35:16;17.70;99.90
16313;DHT22;8265;52.622;13.296;2022-08-02T01:40:35;17.70;99.90
16313;DHT22;8265;52.622;13.296;2022-08-02T01:45:55;17.60;99.90
16313;DHT22;8265;52.622;13.296;2022-08-02T01:51:17;17.60;99.90
16313;DHT22;8265;52.622;13.296;2022-08-02T01:56:37;17.60;99.90
16313;DHT22;8265;52.622;13.296;2022-08-02T02:01:58;17.50;99.90
16313;DHT22;8265;52.622;13.296;2022-08-02T02:07:20;17.50;99.90
16313;DHT22;8265;52.622;13.296;2022-08-02T02:12:41;17.50;99.90
16313;DHT22;8265;52.622;13.296;2022-08-02T02:18:01;17.50;99.90
16313;DHT22;8265;52.622;13.296;2022-08-02T02:23:22;17.50;99.90
16313;DHT22;8265;52.622;13.296;2022-08-02T02:28:43;17.50;99.90
16313;DHT22;8265;52.622;13.296;2022-08-02T02:34:05;17.50;99.90
16313;DHT22;8265;52.622;13.296;2022-08-02T02:39:25;17.50;99.90
16313;DHT22;8265;52.622;13.296;2022-08-02T02:44:46;17.50;99.90
16313;DHT22;8265;52.622;13.296;2022-08-02T02:50:08;17.40;99.90
16313;DHT22;8265;52.622;13.296;2022-08-02T02:55:28;17.30;99.90
16313;DHT22;8265;52.622;13.296;2022-08-02T03:00:49;17.00;99.90
16313;DHT22;8265;52.622;13.296;2022-08-02T03:06:10;17.00;99.90
16313;DHT22;8265;52.622;13.296;2022-08-02T03:11:31;16.90;99.90
16313;DHT22;8265;52.622;13.296;2022-08-02T03:16:52;16.90;99.90
16313;DHT22;8265;52.622;13.296;2022-08-02T03:22:13;17.00;99.90
16313;DHT22;8265;52.622;13.296;2022-08-02T03:27:34;17.10;99.90
16313;DHT22;8265;52.622;13.296;2022-08-02T03:32:54;16.80;99.90
16313;DHT22;8265;52.622;13.296;2022-08-02T03:38:16;16.60;99.90
16313;DHT22;8265;52.622;13.296;2022-08-02T03:43:37;16.40;99.90
16313;DHT22;8265;52.622;13.296;2022-08-02T03:48:57;16.20;99.90
16313;DHT22;8265;52.622;13.296;2022-08-02T03:54:19;15.90;99.90
16313;DHT22;8265;52.622;13.296;2022-08-02T03:59:43;15.80;99.90
16313;DHT22;8265;52.622;13.296;2022-08-02T04:05:00;15.80;99.90
16313;DHT22;8265;52.622;13.296;2022-08-02T04:10:21;15.70;99.90
16313;DHT22;8265;52.622;13.296;2022-08-02T04:15:42;15.80;99.90
16313;DHT22;8265;52.622;13.296;2022-08-02T04:21:03;15.70;99.90
16313;DHT22;8265;52.622;13.296;2022-08-02T04:26:24;15.90;99.90
16313;DHT22;8265;52.622;13.296;2022-08-02T04:31:45;16.20;99.90
16313;DHT22;8265;52.622;13.296;2022-08-02T04:37:06;16.50;99.90
16313;DHT22;8265;52.622;13.296;2022-08-02T04:42:27;16.70;99.90
16313;DHT22;8265;52.622;13.296;2022-08-02T04:47:48;16.60;99.90
16313;DHT22;8265;52.622;13.296;2022-08-02T04:53:09;16.70;99.90
16313;DHT22;8265;52.622;13.296;2022-08-02T04:58:30;16.60;99.90
16313;DHT22;8265;52.622;13.296;2022-08-02T05:03:51;16.50;99.90
16313;DHT22;8265;52.622;13.296;2022-08-02T05:09:12;16.50;99.90
16313;DHT22;8265;52.622;13.296;2022-08-02T05:14:33;16.50;99.90
16313;DHT22;8265;52.622;13.296;2022-08-02T05:19:54;16.60;99.90
16313;DHT22;8265;52.622;13.296;2022-08-02T05:25:15;16.60;99.90
16313;DHT22;8265;52.622;13.296;2022-08-02T05:30:36;16.80;99.90
16313;DHT22;8265;52.622;13.296;2022-08-02T05:35:57;16.90;99.90
16313;DHT22;8265;52.622;13.296;2022-08-02T05:41:18;17.10;99.90
16313;DHT22;8265;52.622;13.296;2022-08-02T05:46:39;17.40;99.90
16313;DHT22;8265;52.622;13.296;2022-08-02T05:52:02;17.60;99.90
16313;DHT22;8265;52.622;13.296;2022-08-02T05:57:29;17.80;99.90
16313;DHT22;8265;52.622;13.296;2022-08-02T06:03:06;18.00;99.90
16313;DHT22;8265;52.622;13.296;2022-08-02T06:08:03;18.30;99.90
16313;DHT22;8265;52.622;13.296;2022-08-02T06:13:23;18.60;99.90
16313;DHT22;8265;52.622;13.296;2022-08-02T06:18:44;18.70;99.90
16313;DHT22;8265;52.622;13.296;2022-08-02T06:24:06;18.90;99.90
16313;DHT22;8265;52.622;13.296;2022-08-02T06:29:26;19.10;99.90
16313;DHT22;8265;52.622;13.296;2022-08-02T06:34:47;19.30;99.90
16313;DHT22;8265;52.622;13.296;2022-08-02T06:40:12;19.30;99.90
16313;DHT22;8265;52.622;13.296;2022-08-02T06:45:30;19.50;99.90
16313;DHT22;8265;52.622;13.296;2022-08-02T06:50:50;19.80;99.90
16313;DHT22;8265;52.622;13.296;2022-08-02T06:56:11;20.10;99.90
16313;DHT22;8265;52.622;13.296;2022-08-02T07:01:32;20.20;99.90
16313;DHT22;8265;52.622;13.296;2022-08-02T07:06:53;20.10;99.90
16313;DHT22;8265;52.622;13.296;2022-08-02T07:12:14;20.10;99.90
16313;DHT22;8265;52.622;13.296;2022-08-02T07:17:35;20.00;99.90
16313;DHT22;8265;52.622;13.296;2022-08-02T07:22:56;20.20;99.90
16313;DHT22;8265;52.622;13.296;2022-08-02T07:28:17;20.10;99.90
16313;DHT22;8265;52.622;13.296;2022-08-02T07:33:38;20.50;99.90
16313;DHT22;8265;52.622;13.296;2022-08-02T07:38:59;20.50;99.90
16313;DHT22;8265;52.622;13.296;2022-08-02T07:44:20;20.40;99.90
16313;DHT22;8265;52.622;13.296;2022-08-02T07:49:41;20.60;99.90
16313;DHT22;8265;52.622;13.296;2022-08-02T07:55:02;20.60;99.90
16313;DHT22;8265;52.622;13.296;2022-08-02T08:00:23;20.80;99.90
16313;DHT22;8265;52.622;13.296;2022-08-02T08:05:44;20.90;99.90
16313;DHT22;8265;52.622;13.296;2022-08-02T08:11:05;21.00;99.90
16313;DHT22;8265;52.622;13.296;2022-08-02T08:16:25;21.10;99.90
16313;DHT22;8265;52.622;13.296;2022-08-02T08:21:46;21.10;99.90
16313;DHT22;8265;52.622;13.296;2022-08-02T08:27:08;21.40;99.90
16313;DHT22;8265;52.622;13.296;2022-08-02T08:32:28;21.60;99.90
16313;DHT22;8265;52.622;13.296;2022-08-02T08:37:49;21.70;99.90
16313;DHT22;8265;52.622;13.296;2022-08-02T08:43:12;21.80;99.90
16313;DHT22;8265;52.622;13.296;2022-08-02T08:48:31;22.00;99.90
16313;DHT22;8265;52.622;13.296;2022-08-02T08:53:53;22.10;99.90
16313;DHT22;8265;52.622;13.296;2022-08-02T08:59:14;22.20;99.90
16313;DHT22;8265;52.622;13.296;2022-08-02T09:04:34;22.20;99.90
16313;DHT22;8265;52.622;13.296;2022-08-02T09:09:55;22.20;99.90
16313;DHT22;8265;52.622;13.296;2022-08-02T09:15:16;22.40;99.90
16313;DHT22;8265;52.622;13.296;2022-08-02T09:20:51;22.40;99.90
16313;DHT22;8265;52.622;13.296;2022-08-02T09:25:59;22.40;99.90
16313;DHT22;8265;52.622;13.296;2022-08-02T09:31:20;22.50;99.90
16313;DHT22;8265;52.622;13.296;2022-08-02T09:36:41;22.80;99.90
16313;DHT22;8265;52.622;13.296;2022-08-02T09:42:08;22.70;99.90
16313;DHT22;8265;52.622;13.296;2022-08-02T09:47:22;23.10;99.90
16313;DHT22;8265;52.622;13.296;2022-08-02T09:52:43;23.30;99.90
16313;DHT22;8265;52.622;13.296;2022-08-02T09:58:19;23.20;99.90
16313;DHT22;8265;52.622;13.296;2022-08-02T10:03:25;23.40;99.90
16313;DHT22;8265;52.622;13.296;2022-08-02T10:08:47;23.80;99.90
16313;DHT22;8265;52.622;13.296;2022-08-02T10:14:07;24.20;99.90
16313;DHT22;8265;52.622;13.296;2022-08-02T10:19:28;23.90;99.90
16313;DHT22;8265;52.622;13.296;2022-08-02T10:24:49;23.30;99.90
16313;DHT22;8265;52.622;13.296;2022-08-02T10:30:11;23.70;99.90
16313;DHT22;8265;52.622;13.296;2022-08-02T10:35:31;23.20;99.90
16313;DHT22;8265;52.622;13.296;2022-08-02T10:40:52;23.20;99.90
16313;DHT22;8265;52.622;13.296;2022-08-02T10:46:31;23.90;99.90
16313;DHT22;8265;52.622;13.296;2022-08-02T10:51:54;24.40;99.90
16313;DHT22;8265;52.622;13.296;2022-08-02T10:56:55;25.00;99.90
16313;DHT22;8265;52.622;13.296;2022-08-02T11:02:32;24.90;99.90
16313;DHT22;8265;52.622;13.296;2022-08-02T11:07:38;24.80;99.90
16313;DHT22;8265;52.622;13.296;2022-08-02T11:13:02;24.60;99.90
16313;DHT22;8265;52.622;13.296;2022-08-02T11:18:18;24.70;99.90
16313;DHT22;8265;52.622;13.296;2022-08-02T11:23:39;24.90;99.90
16313;DHT22;8265;52.622;13.296;2022-08-02T11:29:01;25.20;99.90
16313;DHT22;8265;52.622;13.296;2022-08-02T11:34:22;25.20;99.90
16313;DHT22;8265;52.622;13.296;2022-08-02T11:39:43;24.90;99.90
16313;DHT22;8265;52.622;13.296;2022-08-02T11:45:04;25.00;99.90
16313;DHT22;8265;52.622;13.296;2022-08-02T11:50:24;25.50;99.90
16313;DHT22;8265;52.622;13.296;2022-08-02T11:55:45;25.80;99.90
16313;DHT22;8265;52.622;13.296;2022-08-02T12:01:06;25.90;99.90
16313;DHT22;8265;52.622;13.296;2022-08-02T12:06:27;25.60;99.40
16313;DHT22;8265;52.622;13.296;2022-08-02T12:11:49;25.60;99.80
16313;DHT22;8265;52.622;13.296;2022-08-02T12:17:09;26.00;99.60
16313;DHT22;8265;52.622;13.296;2022-08-02T12:22:30;25.90;99.60
16313;DHT22;8265;52.622;13.296;2022-08-02T12:27:51;26.10;98.20
16313;DHT22;8265;52.622;13.296;2022-08-02T12:33:12;26.70;98.10
16313;DHT22;8265;52.622;13.296;2022-08-02T12:38:33;26.80;96.20
16313;DHT22;8265;52.622;13.296;2022-08-02T12:43:54;26.60;95.10
16313;DHT22;8265;52.622;13.296;2022-08-02T12:49:16;26.80;95.90
16313;DHT22;8265;52.622;13.296;2022-08-02T12:54:39;27.20;94.70
16313;DHT22;8265;52.622;13.296;2022-08-02T12:59:57;27.20;94.70
16313;DHT22;8265;52.622;13.296;2022-08-02T13:05:18;27.30;93.50
16313;DHT22;8265;52.622;13.296;2022-08-02T13:10:38;27.50;93.30
16313;DHT22;8265;52.622;13.296;2022-08-02T13:15:59;27.60;92.80
16313;DHT22;8265;52.622;13.296;2022-08-02T13:21:21;27.90;91.90
16313;DHT22;8265;52.622;13.296;2022-08-02T13:26:42;28.30;91.00
16313;DHT22;8265;52.622;13.296;2022-08-02T13:32:02;27.70;89.80
16313;DHT22;8265;52.622;13.296;2022-08-02T13:37:24;27.60;90.10
16313;DHT22;8265;52.622;13.296;2022-08-02T13:42:44;27.80;90.50
16313;DHT22;8265;52.622;13.296;2022-08-02T13:48:06;28.40;91.30
16313;DHT22;8265;52.622;13.296;2022-08-02T13:53:26;29.10;88.50
16313;DHT22;8265;52.622;13.296;2022-08-02T13:58:47;29.00;84.90
16313;DHT22;8265;52.622;13.296;2022-08-02T14:04:08;29.10;85.00
16313;DHT22;8265;52.622;13.296;2022-08-02T14:09:29;29.70;84.00
16313;DHT22;8265;52.622;13.296;2022-08-02T14:14:50;29.30;83.90
16313;DHT22;8265;52.622;13.296;2022-08-02T14:20:12;29.50;83.70
16313;DHT22;8265;52.622;13.296;2022-08-02T14:25:32;30.10;83.40
16313;DHT22;8265;52.622;13.296;2022-08-02T14:30:53;30.00;80.30
16313;DHT22;8265;52.622;13.296;2022-08-02T14:36:14;29.10;81.20
16313;DHT22;8265;52.622;13.296;2022-08-02T14:41:35;28.70;83.70
16313;DHT22;8265;52.622;13.296;2022-08-02T14:46:56;29.60;84.10
16313;DHT22;8265;52.622;13.296;2022-08-02T14:52:17;29.40;80.80
16313;DHT22;8265;52.622;13.296;2022-08-02T14:57:38;29.90;80.30
16313;DHT22;8265;52.622;13.296;2022-08-02T15:02:59;30.10;81.90
16313;DHT22;8265;52.622;13.296;2022-08-02T15:08:20;29.90;79.00
16313;DHT22;8265;52.622;13.296;2022-08-02T15:13:41;29.30;82.50
16313;DHT22;8265;52.622;13.296;2022-08-02T15:19:02;29.30;83.80
16313;DHT22;8265;52.622;13.296;2022-08-02T15:24:23;29.30;82.10
16313;DHT22;8265;52.622;13.296;2022-08-02T15:29:44;29.20;81.60
16313;DHT22;8265;52.622;13.296;2022-08-02T15:35:06;29.40;79.10
16313;DHT22;8265;52.622;13.296;2022-08-02T15:40:26;29.10;80.20
16313;DHT22;8265;52.622;13.296;2022-08-02T15:45:47;28.70;83.30
16313;DHT22;8265;52.622;13.296;2022-08-02T15:51:08;28.60;80.30
16313;DHT22;8265;52.622;13.296;2022-08-02T15:56:29;28.40;81.10
16313;DHT22;8265;52.622;13.296;2022-08-02T16:01:50;28.30;82.30
16313;DHT22;8265;52.622;13.296;2022-08-02T16:07:11;28.10;81.90
16313;DHT22;8265;52.622;13.296;2022-08-02T16:12:31;27.60;82.90
16313;DHT22;8265;52.622;13.296;2022-08-02T16:17:52;27.50;85.80
16313;DHT22;8265;52.622;13.296;2022-08-02T16:23:13;27.70;84.00
16313;DHT22;8265;52.622;13.296;2022-08-02T16:28:34;28.00;83.30
16313;DHT22;8265;52.622;13.296;2022-08-02T16:33:55;28.20;82.80
16313;DHT22;8265;52.622;13.296;2022-08-02T16:39:16;27.90;83.30
16313;DHT22;8265;52.622;13.296;2022-08-02T16:44:37;28.00;84.50
16313;DHT22;8265;52.622;13.296;2022-08-02T16:49:58;27.80;84.50
16313;DHT22;8265;52.622;13.296;2022-08-02T16:55:19;27.80;85.60
16313;DHT22;8265;52.622;13.296;2022-08-02T17:00:40;27.90;85.50
16313;DHT22;8265;52.622;13.296;2022-08-02T17:06:01;27.70;83.70
16313;DHT22;8265;52.622;13.296;2022-08-02T17:11:22;27.70;89.00
16313;DHT22;8265;52.622;13.296;2022-08-02T17:16:43;27.90;87.20
16313;DHT22;8265;52.622;13.296;2022-08-02T17:22:04;27.40;85.30
16313;DHT22;8265;52.622;13.296;2022-08-02T17:27:25;27.10;91.20
16313;DHT22;8265;52.622;13.296;2022-08-02T17:32:46;27.10;93.10
16313;DHT22;8265;52.622;13.296;2022-08-02T17:38:10;27.20;93.10
16313;DHT22;8265;52.622;13.296;2022-08-02T17:43:28;26.90;94.30
16313;DHT22;8265;52.622;13.296;2022-08-02T17:48:49;26.30;95.10
16313;DHT22;8265;52.622;13.296;2022-08-02T17:54:10;25.70;96.60
16313;DHT22;8265;52.622;13.296;2022-08-02T17:59:31;25.20;98.60
16313;DHT22;8265;52.622;13.296;2022-08-02T18:04:52;24.80;99.20
16313;DHT22;8265;52.622;13.296;2022-08-02T18:10:13;24.30;99.50
16313;DHT22;8265;52.622;13.296;2022-08-02T18:15:34;24.00;99.90
16313;DHT22;8265;52.622;13.296;2022-08-02T18:20:55;23.70;99.90
16313;DHT22;8265;52.622;13.296;2022-08-02T18:26:16;23.40;99.90
16313;DHT22;8265;52.622;13.296;2022-08-02T18:31:37;23.10;99.90
16313;DHT22;8265;52.622;13.296;2022-08-02T18:36:58;22.80;99.90
16313;DHT22;8265;52.622;13.296;2022-08-02T18:42:19;22.50;99.90
16313;DHT22;8265;52.622;13.296;2022-08-02T18:47:39;22.40;99.90
16313;DHT22;8265;52.622;13.296;2022-08-02T18:53:00;22.10;99.90
16313;DHT22;8265;52.622;13.296;2022-08-02T18:58:21;21.90;99.90
16313;DHT22;8265;52.622;13.296;2022-08-02T19:03:42;21.70;99.90
16313;DHT22;8265;52.622;13.296;2022-08-02T19:09:03;21.50;99.90
16313;DHT22;8265;52.622;13.296;2022-08-02T19:14:24;21.30;99.90
16313;DHT22;8265;52.622;13.296;2022-08-02T19:19:45;21.20;99.90
16313;DHT22;8265;52.622;13.296;2022-08-02T19:25:08;21.00;99.90
16313;DHT22;8265;52.622;13.296;2022-08-02T19:30:27;20.90;99.90
16313;DHT22;8265;52.622;13.296;2022-08-02T19:35:48;20.80;99.90
16313;DHT22;8265;52.622;13.296;2022-08-02T19:41:09;20.70;99.90
16313;DHT22;8265;52.622;13.296;2022-08-02T19:46:30;20.50;99.90
16313;DHT22;8265;52.622;13.296;2022-08-02T19:51:51;20.40;99.90
16313;DHT22;8265;52.622;13.296;2022-08-02T19:57:12;20.20;99.90
16313;DHT22;8265;52.622;13.296;2022-08-02T20:02:33;20.00;99.90
16313;DHT22;8265;52.622;13.296;2022-08-02T20:07:54;19.90;99.90
16313;DHT22;8265;52.622;13.296;2022-08-02T20:13:15;19.70;99.90
16313;DHT22;8265;52.622;13.296;2022-08-02T20:18:36;19.70;99.90
16313;DHT22;8265;52.622;13.296;2022-08-02T20:23:57;19.70;99.90
16313;DHT22;8265;52.622;13.296;2022-08-02T20:29:18;19.70;99.90
16313;DHT22;8265;52.622;13.296;2022-08-02T20:34:39;19.60;99.90
16313;DHT22;8265;52.622;13.296;2022-08-02T20:40:00;19.50;99.90
16313;DHT22;8265;52.622;13.296;2022-08-02T20:45:21;19.40;99.90
16313;DHT22;8265;52.622;13.296;2022-08-02T20:50:42;19.30;99.90
16313;DHT22;8265;52.622;13.296;2022-08-02T20:56:03;19.20;99.90
16313;DHT22;8265;52.622;13.296;2022-08-02T21:01:24;19.00;99.90
16313;DHT22;8265;52.622;13.296;2022-08-02T21:06:45;18.80;99.90
16313;DHT22;8265;52.622;13.296;2022-08-02T21:12:06;18.70;99.90
16313;DHT22;8265;52.622;13.296;2022-08-02T21:17:26;18.70;99.90
16313;DHT22;8265;52.622;13.296;2022-08-02T21:22:47;18.70;99.90
16313;DHT22;8265;52.622;13.296;2022-08-02T21:28:08;18.40;99.90
16313;DHT22;8265;52.622;13.296;2022-08-02T21:33:29;18.40;99.90
16313;DHT22;8265;52.622;13.296;2022-08-02T21:38:50;18.20;99.90
16313;DHT22;8265;52.622;13.296;2022-08-02T21:44:12;18.20;99.90
16313;DHT22;8265;52.622;13.296;2022-08-02T21:49:32;18.10;99.90
16313;DHT22;8265;52.622;13.296;2022-08-02T21:54:53;18.10;99.90
16313;DHT22;8265;52.622;13.296;2022-08-02T22:00:15;18.10;99.90
16313;DHT22;8265;52.622;13.296;2022-08-02T22:05:35;18.10;99.90
16313;DHT22;8265;52.622;13.296;2022-08-02T22:10:56;18.20;99.90
16313;DHT22;8265;52.622;13.296;2022-08-02T22:16:17;18.10;99.90
16313;DHT22;8265;52.622;13.296;2022-08-02T22:21:38;18.10;99.90
16313;DHT22;8265;52.622;13.296;2022-08-02T22:26:59;18.10;99.90
16313;DHT22;8265;52.622;13.296;2022-08-02T22:32:20;18.10;99.90
16313;DHT22;8265;52.622;13.296;2022-08-02T22:37:41;18.10;99.90
16313;DHT22;8265;52.622;13.296;2022-08-02T22:43:02;18.20;99.90
16313;DHT22;8265;52.622;13.296;2022-08-02T22:48:23;18.20;99.90
16313;DHT22;8265;52.622;13.296;2022-08-02T22:53:44;18.20;99.90
16313;DHT22;8265;52.622;13.296;2022-08-02T22:59:05;18.30;99.90
16313;DHT22;8265;52.622;13.296;2022-08-02T23:04:26;18.30;99.90
16313;DHT22;8265;52.622;13.296;2022-08-02T23:09:47;18.40;99.90
16313;DHT22;8265;52.622;13.296;2022-08-02T23:15:10;18.40;99.90
16313;DHT22;8265;52.622;13.296;2022-08-02T23:20:29;18.50;99.90
16313;DHT22;8265;52.622;13.296;2022-08-02T23:25:50;18.50;99.90
16313;DHT22;8265;52.622;13.296;2022-08-02T23:31:32;18.50;99.90
16313;DHT22;8265;52.622;13.296;2022-08-02T23:36:32;18.50;99.90
16313;DHT22;8265;52.622;13.296;2022-08-02T23:41:53;18.40;99.90
16313;DHT22;8265;52.622;13.296;2022-08-02T23:47:14;18.30;99.90
16313;DHT22;8265;52.622;13.296;2022-08-02T23:52:35;18.20;99.90
16313;DHT22;8265;52.622;13.296;2022-08-02T23:57:55;18.10;99.90
